sensor_id;sensor_type;location;lat;lon;timestamp;pressure;altitude;pressure_sealevel;temperature;humidity
74627;BME280;63132;52.268;5.192;2023-02-28T00:00:16;103151.34;;;1.15;75.84
74627;BME280;63132;52.268;5.192;2023-02-28T00:02:43;103145.25;;;1.14;75.69
74627;BME280;63132;52.268;5.192;2023-02-28T00:05:10;103153.09;;;1.13;75.74
74627;BME280;63132;52.268;5.192;2023-02-28T00:07:36;103141.75;;;1.17;76.12
74627;BME280;63132;52.268;5.192;2023-02-28T00:10:03;103145.25;;;1.17;76.06
74627;BME280;63132;52.268;5.192;2023-02-28T00:12:29;103145.25;;;1.16;75.99
74627;BME280;63132;52.268;5.192;2023-02-28T00:14:54;103148.75;;;1.18;76.09
74627;BME280;63132;52.268;5.192;2023-02-28T00:17:20;103151.38;;;1.18;75.92
74627;BME280;63132;52.268;5.192;2023-02-28T00:19:50;103144.34;;;1.18;75.96
74627;BME280;63132;52.268;5.192;2023-02-28T00:22:17;103146.97;;;1.25;75.65
74627;BME280;63132;52.268;5.192;2023-02-28T00:24:43;103142.59;;;1.27;75.43
74627;BME280;63132;52.268;5.192;2023-02-28T00:27:08;103139.97;;;1.28;75.33
74627;BME280;63132;52.268;5.192;2023-02-28T00:29:34;103143.44;;;1.30;74.96
74627;BME280;63132;52.268;5.192;2023-02-28T00:32:00;103145.22;;;1.32;75.48
74627;BME280;63132;52.268;5.192;2023-02-28T00:34:25;103146.09;;;1.34;75.41
74627;BME280;63132;52.268;5.192;2023-02-28T00:36:50;103145.22;;;1.32;75.13
74627;BME280;63132;52.268;5.192;2023-02-28T00:39:16;103146.06;;;1.32;75.49
74627;BME280;63132;52.268;5.192;2023-02-28T00:41:41;103144.34;;;1.31;75.24
74627;BME280;63132;52.268;5.192;2023-02-28T00:44:07;103139.06;;;1.34;75.29
74627;BME280;63132;52.268;5.192;2023-02-28T00:46:32;103143.41;;;1.40;74.77
74627;BME280;63132;52.268;5.192;2023-02-28T00:48:58;103132.91;;;1.41;74.92
74627;BME280;63132;52.268;5.192;2023-02-28T00:51:23;103143.41;;;1.46;74.83
74627;BME280;63132;52.268;5.192;2023-02-28T00:53:49;103133.78;;;1.45;74.99
74627;BME280;63132;52.268;5.192;2023-02-28T00:56:14;103140.81;;;1.43;74.86
74627;BME280;63132;52.268;5.192;2023-02-28T00:58:40;103141.66;;;1.44;75.28
74627;BME280;63132;52.268;5.192;2023-02-28T01:01:06;103143.44;;;1.43;75.15
74627;BME280;63132;52.268;5.192;2023-02-28T01:03:31;103142.53;;;1.39;75.61
74627;BME280;63132;52.268;5.192;2023-02-28T01:05:57;103140.81;;;1.38;75.43
74627;BME280;63132;52.268;5.192;2023-02-28T01:08:23;103149.56;;;1.39;75.42
74627;BME280;63132;52.268;5.192;2023-02-28T01:10:48;103147.81;;;1.41;75.69
74627;BME280;63132;52.268;5.192;2023-02-28T01:13:15;103147.81;;;1.41;75.46
74627;BME280;63132;52.268;5.192;2023-02-28T01:15:48;103143.41;;;1.40;75.53
74627;BME280;63132;52.268;5.192;2023-02-28T01:18:14;103145.19;;;1.42;75.49
74627;BME280;63132;52.268;5.192;2023-02-28T01:20:39;103153.06;;;1.41;75.79
74627;BME280;63132;52.268;5.192;2023-02-28T01:23:05;103146.03;;;1.40;75.58
74627;BME280;63132;52.268;5.192;2023-02-28T01:25:30;103142.56;;;1.38;75.99
74627;BME280;63132;52.268;5.192;2023-02-28T01:27:56;103143.41;;;1.40;76.06
74627;BME280;63132;52.268;5.192;2023-02-28T01:30:21;103153.03;;;1.42;76.13
74627;BME280;63132;52.268;5.192;2023-02-28T01:32:47;103140.81;;;1.43;76.17
74627;BME280;63132;52.268;5.192;2023-02-28T01:35:12;103136.41;;;1.45;75.95
74627;BME280;63132;52.268;5.192;2023-02-28T01:37:37;103130.31;;;1.45;76.06
74627;BME280;63132;52.268;5.192;2023-02-28T01:40:03;103134.66;;;1.46;76.17
74627;BME280;63132;52.268;5.192;2023-02-28T01:42:29;103125.03;;;1.46;76.35
74627;BME280;63132;52.268;5.192;2023-02-28T01:47:42;103125.03;;;1.46;76.31
74627;BME280;63132;52.268;5.192;2023-02-28T01:50:20;103117.19;;;1.46;76.46
74627;BME280;63132;52.268;5.192;2023-02-28T01:52:49;103120.66;;;1.45;76.28
74627;BME280;63132;52.268;5.192;2023-02-28T01:55:17;103113.69;;;1.44;76.21
74627;BME280;63132;52.268;5.192;2023-02-28T01:57:51;103118.94;;;1.44;76.34
74627;BME280;63132;52.268;5.192;2023-02-28T02:00:20;103124.19;;;1.44;76.35
74627;BME280;63132;52.268;5.192;2023-02-28T02:02:49;103118.06;;;1.47;76.46
74627;BME280;63132;52.268;5.192;2023-02-28T02:05:24;103116.28;;;1.46;76.45
74627;BME280;63132;52.268;5.192;2023-02-28T02:07:55;103116.28;;;1.46;76.36
74627;BME280;63132;52.268;5.192;2023-02-28T02:10:29;103118.91;;;1.47;76.79
74627;BME280;63132;52.268;5.192;2023-02-28T02:15:48;103104.94;;;1.48;76.45
74627;BME280;63132;52.268;5.192;2023-02-28T02:29:10;103101.38;;;1.59;76.51
74627;BME280;63132;52.268;5.192;2023-02-28T02:31:52;103106.66;;;1.52;76.42
74627;BME280;63132;52.268;5.192;2023-02-28T02:37:14;103111.00;;;1.55;76.70
74627;BME280;63132;52.268;5.192;2023-02-28T02:39:54;103103.13;;;1.61;76.74
74627;BME280;63132;52.268;5.192;2023-02-28T02:42:36;103106.59;;;1.63;76.19
74627;BME280;63132;52.268;5.192;2023-02-28T02:45:11;103108.38;;;1.60;76.76
74627;BME280;63132;52.268;5.192;2023-02-28T02:47:39;103109.25;;;1.57;76.58
74627;BME280;63132;52.268;5.192;2023-02-28T02:50:08;103109.25;;;1.56;76.78
74627;BME280;63132;52.268;5.192;2023-02-28T02:52:40;103102.28;;;1.56;76.75
74627;BME280;63132;52.268;5.192;2023-02-28T02:55:08;103113.63;;;1.60;76.99
74627;BME280;63132;52.268;5.192;2023-02-28T02:57:44;103106.63;;;1.62;77.26
74627;BME280;63132;52.268;5.192;2023-02-28T03:00:12;103105.72;;;1.63;77.13
74627;BME280;63132;52.268;5.192;2023-02-28T03:02:40;103106.63;;;1.62;76.99
74627;BME280;63132;52.268;5.192;2023-02-28T03:05:17;103110.09;;;1.61;77.05
74627;BME280;63132;52.268;5.192;2023-02-28T03:07:44;103114.47;;;1.70;77.36
74627;BME280;63132;52.268;5.192;2023-02-28T03:10:29;103114.50;;;1.62;76.96
74627;BME280;63132;52.268;5.192;2023-02-28T03:19:04;103102.25;;;1.64;76.75
74627;BME280;63132;52.268;5.192;2023-02-28T03:21:43;103104.84;;;1.62;76.94
74627;BME280;63132;52.268;5.192;2023-02-28T03:24:19;103096.09;;;1.65;76.47
74627;BME280;63132;52.268;5.192;2023-02-28T03:26:54;103096.09;;;1.70;76.11
74627;BME280;63132;52.268;5.192;2023-02-28T03:29:37;103094.31;;;1.70;76.26
74627;BME280;63132;52.268;5.192;2023-02-28T03:32:10;103095.19;;;1.71;76.26
74627;BME280;63132;52.268;5.192;2023-02-28T03:34:50;103090.78;;;1.74;76.66
74627;BME280;63132;52.268;5.192;2023-02-28T03:37:20;103096.06;;;1.71;77.20
74627;BME280;63132;52.268;5.192;2023-02-28T03:39:50;103103.97;;;1.70;77.56
74627;BME280;63132;52.268;5.192;2023-02-28T03:42:23;103095.22;;;1.68;77.36
74627;BME280;63132;52.268;5.192;2023-02-28T03:44:54;103106.59;;;1.70;77.07
74627;BME280;63132;52.268;5.192;2023-02-28T03:47:29;103112.75;;;1.64;77.22
74627;BME280;63132;52.268;5.192;2023-02-28T03:50:01;103110.03;;;1.78;76.97
74627;BME280;63132;52.268;5.192;2023-02-28T03:52:31;103110.06;;;1.72;76.04
74627;BME280;63132;52.268;5.192;2023-02-28T03:55:02;103108.31;;;1.69;75.79
74627;BME280;63132;52.268;5.192;2023-02-28T03:57:42;103104.81;;;1.73;75.23
74627;BME280;63132;52.268;5.192;2023-02-28T04:00:16;103110.06;;;1.72;74.89
74627;BME280;63132;52.268;5.192;2023-02-28T04:02:42;103098.69;;;1.73;75.73
74627;BME280;63132;52.268;5.192;2023-02-28T04:05:08;103102.19;;;1.70;75.89
74627;BME280;63132;52.268;5.192;2023-02-28T04:07:33;103106.59;;;1.70;76.00
74627;BME280;63132;52.268;5.192;2023-02-28T04:09:59;103103.06;;;1.69;75.08
74627;BME280;63132;52.268;5.192;2023-02-28T04:12:25;103109.19;;;1.68;75.58
74627;BME280;63132;52.268;5.192;2023-02-28T04:14:50;103109.19;;;1.68;75.51
74627;BME280;63132;52.268;5.192;2023-02-28T04:17:16;103108.31;;;1.72;75.41
74627;BME280;63132;52.268;5.192;2023-02-28T04:19:42;103120.56;;;1.73;75.65
74627;BME280;63132;52.268;5.192;2023-02-28T04:22:08;103117.09;;;1.70;75.83
74627;BME280;63132;52.268;5.192;2023-02-28T04:24:34;103112.75;;;1.64;76.01
74627;BME280;63132;52.268;5.192;2023-02-28T04:26:59;103121.41;;;1.77;75.17
74627;BME280;63132;52.268;5.192;2023-02-28T04:29:27;103117.94;;;1.70;76.09
74627;BME280;63132;52.268;5.192;2023-02-28T04:31:54;103112.69;;;1.73;76.13
74627;BME280;63132;52.268;5.192;2023-02-28T04:34:21;103120.59;;;1.67;77.17
74627;BME280;63132;52.268;5.192;2023-02-28T04:36:47;103118.88;;;1.58;77.61
74627;BME280;63132;52.268;5.192;2023-02-28T04:39:18;103114.50;;;1.57;77.39
74627;BME280;63132;52.268;5.192;2023-02-28T04:41:47;103114.50;;;1.51;78.30
74627;BME280;63132;52.268;5.192;2023-02-28T04:44:13;103111.91;;;1.48;78.31
74627;BME280;63132;52.268;5.192;2023-02-28T04:46:39;103108.38;;;1.58;77.64
74627;BME280;63132;52.268;5.192;2023-02-28T04:49:05;103111.00;;;1.58;77.57
74627;BME280;63132;52.268;5.192;2023-02-28T04:51:30;103108.38;;;1.57;77.69
74627;BME280;63132;52.268;5.192;2023-02-28T04:53:56;103104.84;;;1.61;77.32
74627;BME280;63132;52.268;5.192;2023-02-28T04:56:22;103111.03;;;1.52;78.08
74627;BME280;63132;52.268;5.192;2023-02-28T04:58:47;103103.19;;;1.49;78.68
74627;BME280;63132;52.268;5.192;2023-02-28T05:01:28;103109.31;;;1.45;79.16
74627;BME280;63132;52.268;5.192;2023-02-28T05:03:56;103103.25;;;1.32;78.75
74627;BME280;63132;52.268;5.192;2023-02-28T05:06:23;103107.53;;;1.45;78.39
74627;BME280;63132;52.268;5.192;2023-02-28T05:08:50;103107.59;;;1.34;78.95
74627;BME280;63132;52.268;5.192;2023-02-28T05:11:24;103105.81;;;1.39;78.90
74627;BME280;63132;52.268;5.192;2023-02-28T05:13:51;103101.44;;;1.40;78.11
74627;BME280;63132;52.268;5.192;2023-02-28T05:16:16;103097.97;;;1.35;78.80
74627;BME280;63132;52.268;5.192;2023-02-28T05:18:42;103108.47;;;1.28;79.41
74627;BME280;63132;52.268;5.192;2023-02-28T05:23:51;103110.16;;;1.45;78.55
74627;BME280;63132;52.268;5.192;2023-02-28T05:26:17;103113.75;;;1.25;79.10
74627;BME280;63132;52.268;5.192;2023-02-28T05:28:43;103106.78;;;1.18;79.26
74627;BME280;63132;52.268;5.192;2023-02-28T05:31:10;103109.38;;;1.23;77.86
74627;BME280;63132;52.268;5.192;2023-02-28T05:33:36;103102.38;;;1.23;77.53
74627;BME280;63132;52.268;5.192;2023-02-28T05:36:02;103108.44;;;1.44;76.61
74627;BME280;63132;52.268;5.192;2023-02-28T05:38:27;103105.00;;;1.25;77.39
74627;BME280;63132;52.268;5.192;2023-02-28T05:40:53;103109.38;;;1.27;77.75
74627;BME280;63132;52.268;5.192;2023-02-28T05:43:18;103104.97;;;1.36;76.33
74627;BME280;63132;52.268;5.192;2023-02-28T05:45:44;103116.38;;;1.21;74.99
74627;BME280;63132;52.268;5.192;2023-02-28T05:48:09;103117.25;;;1.21;75.84
74627;BME280;63132;52.268;5.192;2023-02-28T05:50:34;103121.63;;;1.25;75.61
74627;BME280;63132;52.268;5.192;2023-02-28T05:53:00;103121.66;;;1.11;74.64
74627;BME280;63132;52.268;5.192;2023-02-28T05:55:25;103120.78;;;1.11;74.55
74627;BME280;63132;52.268;5.192;2023-02-28T05:57:51;103126.03;;;1.06;75.49
74627;BME280;63132;52.268;5.192;2023-02-28T06:00:16;103122.53;;;1.05;76.46
74627;BME280;63132;52.268;5.192;2023-02-28T06:02:43;103119.91;;;0.98;77.12
74627;BME280;63132;52.268;5.192;2023-02-28T06:05:16;103126.94;;;0.81;75.87
74627;BME280;63132;52.268;5.192;2023-02-28T06:07:43;103126.94;;;0.83;75.98
74627;BME280;63132;52.268;5.192;2023-02-28T06:10:09;103124.31;;;0.86;77.21
74627;BME280;63132;52.268;5.192;2023-02-28T06:12:35;103126.06;;;0.65;77.37
74627;BME280;63132;52.268;5.192;2023-02-28T06:15:00;103136.56;;;0.57;77.51
74627;BME280;63132;52.268;5.192;2023-02-28T06:17:26;103140.06;;;0.56;78.37
74627;BME280;63132;52.268;5.192;2023-02-28T06:19:51;103142.66;;;0.41;78.15
74627;BME280;63132;52.268;5.192;2023-02-28T06:22:16;103144.38;;;0.23;77.93
74627;BME280;63132;52.268;5.192;2023-02-28T06:24:42;103142.69;;;0.36;77.71
74627;BME280;63132;52.268;5.192;2023-02-28T06:27:07;103146.13;;;0.15;78.14
74627;BME280;63132;52.268;5.192;2023-02-28T06:29:34;103146.09;;;0.05;78.68
74627;BME280;63132;52.268;5.192;2023-02-28T06:32:00;103150.47;;;0.14;78.81
74627;BME280;63132;52.268;5.192;2023-02-28T06:34:25;103144.38;;;0.20;79.50
74627;BME280;63132;52.268;5.192;2023-02-28T06:36:51;103148.75;;;0.18;79.43
74627;BME280;63132;52.268;5.192;2023-02-28T06:39:17;103146.97;;;-0.01;80.23
74627;BME280;63132;52.268;5.192;2023-02-28T06:41:43;103153.94;;;-0.01;80.91
74627;BME280;63132;52.268;5.192;2023-02-28T06:44:17;103157.41;;;-0.05;81.29
74627;BME280;63132;52.268;5.192;2023-02-28T06:46:44;103153.91;;;-0.12;81.74
74627;BME280;63132;52.268;5.192;2023-02-28T06:49:11;103163.53;;;-0.05;81.20
74627;BME280;63132;52.268;5.192;2023-02-28T06:51:38;103162.66;;;-0.08;81.92
74627;BME280;63132;52.268;5.192;2023-02-28T06:54:04;103164.44;;;0.15;81.63
74627;BME280;63132;52.268;5.192;2023-02-28T06:56:30;103167.88;;;-0.08;81.78
74627;BME280;63132;52.268;5.192;2023-02-28T06:58:55;103160.03;;;-0.11;82.31
74627;BME280;63132;52.268;5.192;2023-02-28T07:01:21;103178.38;;;0.01;83.12
74627;BME280;63132;52.268;5.192;2023-02-28T07:03:49;103165.28;;;0.03;83.11
74627;BME280;63132;52.268;5.192;2023-02-28T07:06:20;103176.66;;;0.09;83.14
74627;BME280;63132;52.268;5.192;2023-02-28T07:08:48;103182.72;;;-0.04;82.27
74627;BME280;63132;52.268;5.192;2023-02-28T07:11:13;103177.50;;;-0.04;83.12
74627;BME280;63132;52.268;5.192;2023-02-28T07:13:39;103174.91;;;0.11;82.46
74627;BME280;63132;52.268;5.192;2023-02-28T07:16:07;103187.09;;;0.06;82.73
74627;BME280;63132;52.268;5.192;2023-02-28T07:18:34;103178.41;;;0.07;83.09
74627;BME280;63132;52.268;5.192;2023-02-28T07:21:04;103184.53;;;0.23;82.86
74627;BME280;63132;52.268;5.192;2023-02-28T07:23:30;103172.34;;;0.43;81.97
74627;BME280;63132;52.268;5.192;2023-02-28T07:25:55;103175.84;;;0.46;81.58
74627;BME280;63132;52.268;5.192;2023-02-28T07:28:21;103172.38;;;0.60;81.55
74627;BME280;63132;52.268;5.192;2023-02-28T07:30:46;103188.06;;;0.52;81.21
74627;BME280;63132;52.268;5.192;2023-02-28T07:33:14;103190.72;;;0.74;81.28
74627;BME280;63132;52.268;5.192;2023-02-28T07:35:40;103175.88;;;0.93;79.35
74627;BME280;63132;52.268;5.192;2023-02-28T07:38:05;103167.13;;;0.99;79.78
74627;BME280;63132;52.268;5.192;2023-02-28T07:40:33;103178.47;;;1.04;79.24
74627;BME280;63132;52.268;5.192;2023-02-28T07:43:00;103167.09;;;1.05;78.93
74627;BME280;63132;52.268;5.192;2023-02-28T07:45:26;103165.34;;;1.01;79.08
74627;BME280;63132;52.268;5.192;2023-02-28T07:47:52;103172.38;;;0.94;79.08
74627;BME280;63132;52.268;5.192;2023-02-28T07:50:18;103161.00;;;1.10;79.11
74627;BME280;63132;52.268;5.192;2023-02-28T07:52:43;103168.84;;;1.17;79.53
74627;BME280;63132;52.268;5.192;2023-02-28T07:55:09;103174.09;;;1.02;79.61
74627;BME280;63132;52.268;5.192;2023-02-28T07:57:35;103177.59;;;0.80;79.83
74627;BME280;63132;52.268;5.192;2023-02-28T08:00:05;103168.00;;;0.92;79.96
74627;BME280;63132;52.268;5.192;2023-02-28T08:02:31;103174.97;;;0.80;80.88
74627;BME280;63132;52.268;5.192;2023-02-28T08:04:57;103162.75;;;1.11;80.05
74627;BME280;63132;52.268;5.192;2023-02-28T08:07:22;103169.75;;;0.84;79.60
74627;BME280;63132;52.268;5.192;2023-02-28T08:09:48;103160.94;;;1.27;79.51
74627;BME280;63132;52.268;5.192;2023-02-28T08:12:13;103165.25;;;1.53;78.51
74627;BME280;63132;52.268;5.192;2023-02-28T08:14:39;103166.94;;;1.67;77.66
74627;BME280;63132;52.268;5.192;2023-02-28T08:17:05;103169.72;;;1.18;78.55
74627;BME280;63132;52.268;5.192;2023-02-28T08:19:31;103167.97;;;1.23;79.27
74627;BME280;63132;52.268;5.192;2023-02-28T08:21:56;103172.22;;;1.59;78.60
74627;BME280;63132;52.268;5.192;2023-02-28T08:24:22;103179.25;;;1.53;78.05
74627;BME280;63132;52.268;5.192;2023-02-28T08:26:48;103171.34;;;1.66;78.99
74627;BME280;63132;52.268;5.192;2023-02-28T08:29:13;103167.81;;;1.70;77.64
74627;BME280;63132;52.268;5.192;2023-02-28T08:31:39;103173.16;;;1.36;79.87
74627;BME280;63132;52.268;5.192;2023-02-28T08:34:08;103175.88;;;0.95;80.88
74627;BME280;63132;52.268;5.192;2023-02-28T08:36:34;103169.69;;;1.24;81.81
74627;BME280;63132;52.268;5.192;2023-02-28T08:39:00;103183.69;;;1.31;80.54
74627;BME280;63132;52.268;5.192;2023-02-28T08:41:26;103173.19;;;1.33;80.84
74627;BME280;63132;52.268;5.192;2023-02-28T08:43:52;103171.38;;;1.47;80.34
74627;BME280;63132;52.268;5.192;2023-02-28T08:46:19;103176.66;;;1.49;81.04
74627;BME280;63132;52.268;5.192;2023-02-28T08:48:44;103174.03;;;1.49;80.55
74627;BME280;63132;52.268;5.192;2023-02-28T08:51:13;103169.53;;;1.74;79.98
74627;BME280;63132;52.268;5.192;2023-02-28T08:53:40;103170.25;;;2.05;80.14
74627;BME280;63132;52.268;5.192;2023-02-28T08:56:10;103180.78;;;2.01;79.52
74627;BME280;63132;52.268;5.192;2023-02-28T08:58:36;103171.09;;;2.13;78.62
74627;BME280;63132;52.268;5.192;2023-02-28T09:01:28;103176.94;;;2.59;77.95
74627;BME280;63132;52.268;5.192;2023-02-28T09:03:55;103174.31;;;2.57;79.04
74627;BME280;63132;52.268;5.192;2023-02-28T09:06:23;103182.91;;;2.78;77.43
74627;BME280;63132;52.268;5.192;2023-02-28T09:08:49;103184.84;;;2.53;78.34
74627;BME280;63132;52.268;5.192;2023-02-28T09:11:14;103177.88;;;2.48;77.83
74627;BME280;63132;52.268;5.192;2023-02-28T09:13:41;103184.94;;;2.42;76.86
74627;BME280;63132;52.268;5.192;2023-02-28T09:16:12;103197.22;;;2.35;77.75
74627;BME280;63132;52.268;5.192;2023-02-28T09:18:40;103186.47;;;2.69;75.68
74627;BME280;63132;52.268;5.192;2023-02-28T09:21:11;103195.19;;;2.76;76.43
74627;BME280;63132;52.268;5.192;2023-02-28T09:23:40;103191.47;;;3.01;74.69
74627;BME280;63132;52.268;5.192;2023-02-28T09:26:07;103189.66;;;3.09;73.43
74627;BME280;63132;52.268;5.192;2023-02-28T09:28:33;103188.13;;;2.86;75.23
74627;BME280;63132;52.268;5.192;2023-02-28T09:30:59;103194.91;;;3.09;71.94
74627;BME280;63132;52.268;5.192;2023-02-28T09:33:25;103188.94;;;2.90;72.27
74627;BME280;63132;52.268;5.192;2023-02-28T09:35:51;103185.56;;;2.74;70.96
74627;BME280;63132;52.268;5.192;2023-02-28T09:38:22;103194.53;;;2.47;72.45
74627;BME280;63132;52.268;5.192;2023-02-28T09:41:02;103188.38;;;2.52;71.84
74627;BME280;63132;52.268;5.192;2023-02-28T09:43:33;103186.41;;;2.79;72.54
74627;BME280;63132;52.268;5.192;2023-02-28T09:48:32;103193.28;;;2.92;71.02
74627;BME280;63132;52.268;5.192;2023-02-28T09:51:11;103189.16;;;2.65;71.51
74627;BME280;63132;52.268;5.192;2023-02-28T09:53:37;103193.44;;;2.74;70.86
74627;BME280;63132;52.268;5.192;2023-02-28T09:56:06;103190.44;;;3.17;71.29
74627;BME280;63132;52.268;5.192;2023-02-28T09:58:49;103191.78;;;3.56;68.42
74627;BME280;63132;52.268;5.192;2023-02-28T10:04:11;103185.03;;;4.06;66.36
74627;BME280;63132;52.268;5.192;2023-02-28T10:06:50;103189.84;;;3.74;62.85
74627;BME280;63132;52.268;5.192;2023-02-28T10:09:21;103195.66;;;4.01;62.05
74627;BME280;63132;52.268;5.192;2023-02-28T10:11:51;103193.22;;;3.85;61.49
74627;BME280;63132;52.268;5.192;2023-02-28T10:14:26;103198.88;;;4.20;63.79
74627;BME280;63132;52.268;5.192;2023-02-28T10:17:17;103199.69;;;4.25;62.83
74627;BME280;63132;52.268;5.192;2023-02-28T10:20:01;103194.63;;;4.10;60.41
74627;BME280;63132;52.268;5.192;2023-02-28T10:25:04;103194.31;;;4.89;57.08
74627;BME280;63132;52.268;5.192;2023-02-28T10:27:31;103188.06;;;4.93;60.70
74627;BME280;63132;52.268;5.192;2023-02-28T10:29:59;103191.66;;;4.90;56.75
74627;BME280;63132;52.268;5.192;2023-02-28T10:35:06;103188.34;;;4.22;57.48
74627;BME280;63132;52.268;5.192;2023-02-28T10:37:39;103190.09;;;4.78;58.46
74627;BME280;63132;52.268;5.192;2023-02-28T10:40:06;103190.16;;;4.73;58.13
74627;BME280;63132;52.268;5.192;2023-02-28T10:45:37;103175.50;;;4.55;55.47
74627;BME280;63132;52.268;5.192;2023-02-28T10:48:06;103172.19;;;4.44;57.48
74627;BME280;63132;52.268;5.192;2023-02-28T10:50:52;103173.31;;;4.82;53.19
74627;BME280;63132;52.268;5.192;2023-02-28T11:04:00;103167.44;;;5.17;46.85
74627;BME280;63132;52.268;5.192;2023-02-28T11:06:29;103156.81;;;5.20;47.29
74627;BME280;63132;52.268;5.192;2023-02-28T11:08:58;103154.25;;;5.17;47.61
74627;BME280;63132;52.268;5.192;2023-02-28T11:11:26;103154.13;;;5.23;42.93
74627;BME280;63132;52.268;5.192;2023-02-28T11:13:57;103157.09;;;5.04;48.06
74627;BME280;63132;52.268;5.192;2023-02-28T11:16:36;103158.84;;;5.05;44.88
74627;BME280;63132;52.268;5.192;2023-02-28T11:19:03;103146.59;;;5.01;45.91
74627;BME280;63132;52.268;5.192;2023-02-28T11:21:32;103146.88;;;4.85;46.19
74627;BME280;63132;52.268;5.192;2023-02-28T11:24:07;103140.28;;;5.12;44.91
74627;BME280;63132;52.268;5.192;2023-02-28T11:26:41;103146.94;;;4.82;45.30
74627;BME280;63132;52.268;5.192;2023-02-28T11:32:02;103131.81;;;3.78;45.91
74627;BME280;63132;52.268;5.192;2023-02-28T11:34:28;103141.50;;;3.78;47.34
74627;BME280;63132;52.268;5.192;2023-02-28T11:36:56;103127.75;;;3.54;47.73
74627;BME280;63132;52.268;5.192;2023-02-28T11:39:23;103127.50;;;3.73;48.57
74627;BME280;63132;52.268;5.192;2023-02-28T11:44:48;103129.72;;;3.36;47.72
74627;BME280;63132;52.268;5.192;2023-02-28T11:52:34;103118.25;;;3.42;48.84
74627;BME280;63132;52.268;5.192;2023-02-28T11:55:23;103111.41;;;3.30;49.73
74627;BME280;63132;52.268;5.192;2023-02-28T12:00:33;103117.16;;;3.60;48.89
74627;BME280;63132;52.268;5.192;2023-02-28T12:03:22;103109.44;;;3.45;46.92
74627;BME280;63132;52.268;5.192;2023-02-28T12:08:52;103110.25;;;3.53;49.08
74627;BME280;63132;52.268;5.192;2023-02-28T12:11:41;103102.25;;;3.58;48.26
74627;BME280;63132;52.268;5.192;2023-02-28T12:17:12;103110.13;;;3.62;47.25
74627;BME280;63132;52.268;5.192;2023-02-28T12:20:09;103105.94;;;3.44;48.34
74627;BME280;63132;52.268;5.192;2023-02-28T12:23:14;103110.28;;;3.48;48.19
74627;BME280;63132;52.268;5.192;2023-02-28T12:28:16;103099.28;;;3.84;47.78
74627;BME280;63132;52.268;5.192;2023-02-28T12:30:53;103098.44;;;3.84;46.87
74627;BME280;63132;52.268;5.192;2023-02-28T12:33:24;103095.78;;;3.82;47.79
74627;BME280;63132;52.268;5.192;2023-02-28T12:35:59;103094.84;;;3.89;48.15
74627;BME280;63132;52.268;5.192;2023-02-28T12:38:35;103085.44;;;3.70;47.58
74627;BME280;63132;52.268;5.192;2023-02-28T12:41:05;103079.25;;;3.74;46.95
74627;BME280;63132;52.268;5.192;2023-02-28T12:43:40;103078.31;;;3.78;47.54
74627;BME280;63132;52.268;5.192;2023-02-28T12:46:10;103080.50;;;4.08;46.18
74627;BME280;63132;52.268;5.192;2023-02-28T12:51:05;103073.63;;;3.97;46.75
74627;BME280;63132;52.268;5.192;2023-02-28T12:53:42;103081.78;;;3.82;46.51
74627;BME280;63132;52.268;5.192;2023-02-28T12:58:48;103082.06;;;4.21;47.70
74627;BME280;63132;52.268;5.192;2023-02-28T13:10:00;103074.19;;;4.20;45.52
74627;BME280;63132;52.268;5.192;2023-02-28T13:12:27;103070.78;;;4.11;45.23
74627;BME280;63132;52.268;5.192;2023-02-28T13:17:31;103062.94;;;4.07;45.54
74627;BME280;63132;52.268;5.192;2023-02-28T13:19:59;103056.81;;;4.06;44.70
74627;BME280;63132;52.268;5.192;2023-02-28T13:24:57;103064.41;;;4.25;43.00
74627;BME280;63132;52.268;5.192;2023-02-28T13:27:41;103060.31;;;4.07;41.17
74627;BME280;63132;52.268;5.192;2023-02-28T13:35:45;103055.44;;;4.35;43.91
74627;BME280;63132;52.268;5.192;2023-02-28T13:38:22;103044.03;;;4.36;41.57
74627;BME280;63132;52.268;5.192;2023-02-28T13:40:48;103045.06;;;4.26;43.08
74627;BME280;63132;52.268;5.192;2023-02-28T13:43:16;103046.84;;;4.24;43.98
74627;BME280;63132;52.268;5.192;2023-02-28T13:46:06;103046.97;;;4.18;43.06
74627;BME280;63132;52.268;5.192;2023-02-28T13:48:33;103042.56;;;4.20;43.28
74627;BME280;63132;52.268;5.192;2023-02-28T13:50:58;103034.66;;;4.18;42.06
74627;BME280;63132;52.268;5.192;2023-02-28T13:53:33;103030.03;;;4.33;43.93
74627;BME280;63132;52.268;5.192;2023-02-28T13:56:16;103034.66;;;4.20;41.42
74627;BME280;63132;52.268;5.192;2023-02-28T13:58:54;103035.53;;;4.19;40.86
74627;BME280;63132;52.268;5.192;2023-02-28T14:01:52;103031.97;;;4.21;43.05
74627;BME280;63132;52.268;5.192;2023-02-28T14:04:46;103036.53;;;4.11;43.39
74627;BME280;63132;52.268;5.192;2023-02-28T14:07:24;103029.56;;;4.07;43.07
74627;BME280;63132;52.268;5.192;2023-02-28T14:10:04;103019.69;;;4.22;42.70
74627;BME280;63132;52.268;5.192;2023-02-28T14:12:56;103020.41;;;4.30;41.30
74627;BME280;63132;52.268;5.192;2023-02-28T14:15:46;103017.75;;;4.33;41.31
74627;BME280;63132;52.268;5.192;2023-02-28T14:18:32;103017.50;;;4.46;42.14
74627;BME280;63132;52.268;5.192;2023-02-28T14:26:25;103015.03;;;4.36;40.95
74627;BME280;63132;52.268;5.192;2023-02-28T14:32:01;103016.72;;;4.41;41.00
74627;BME280;63132;52.268;5.192;2023-02-28T14:34:52;103014.34;;;4.25;40.86
74627;BME280;63132;52.268;5.192;2023-02-28T14:37:25;103013.53;;;4.21;42.00
74627;BME280;63132;52.268;5.192;2023-02-28T14:39:51;103009.97;;;4.24;41.87
74627;BME280;63132;52.268;5.192;2023-02-28T14:42:32;103012.41;;;4.36;41.03
74627;BME280;63132;52.268;5.192;2023-02-28T14:44:58;103012.34;;;4.40;41.71
74627;BME280;63132;52.268;5.192;2023-02-28T14:47:35;103009.75;;;4.36;41.75
74627;BME280;63132;52.268;5.192;2023-02-28T14:50:03;103005.38;;;4.35;41.86
74627;BME280;63132;52.268;5.192;2023-02-28T14:52:30;103012.47;;;4.32;41.59
74627;BME280;63132;52.268;5.192;2023-02-28T14:55:05;103009.97;;;4.25;42.46
74627;BME280;63132;52.268;5.192;2023-02-28T14:57:35;103008.16;;;4.26;42.14
74627;BME280;63132;52.268;5.192;2023-02-28T15:00:14;103009.69;;;4.40;41.38